Time;durP1;ratioP1;P1;durP2;ratioP2;P2;SDS_P1;SDS_P2;PMS_P1;PMS_P2;Temp;Humidity;BMP_temperature;BMP_pressure;BME280_temperature;BME280_humidity;BME280_pressure;Samples;Min_cycle;Max_cycle;Signal;HPM_P1;HPM_P2
2024/01/13 00:01:12;;;;;;;6.82;3.42;;;;;;;18.49;39.17;102789.25;4970824;28;126435;-87
2024/01/13 00:03:37;;;;;;;5.70;3.45;;;;;;;18.49;38.90;102786.63;4988103;28;97460;-87
2024/01/13 00:06:03;;;;;;;6.80;3.10;;;;;;;18.50;39.02;102785.72;4993894;28;96991;-87
2024/01/13 00:08:28;;;;;;;5.80;3.10;;;;;;;18.50;39.02;102782.22;4987278;28;99261;-88
2024/01/13 00:10:54;;;;;;;5.93;2.65;;;;;;;18.50;39.21;102779.56;4969791;28;116339;-87
2024/01/13 00:13:19;;;;;;;6.07;3.30;;;;;;;18.49;38.92;102778.69;4953339;28;116438;-87
2024/01/13 00:15:44;;;;;;;6.15;3.30;;;;;;;18.49;39.10;102778.69;4986659;28;97999;-88
2024/01/13 00:18:10;;;;;;;6.22;2.78;;;;;;;18.51;39.26;102770.78;4970412;28;115722;-88
2024/01/13 00:20:35;;;;;;;6.50;2.85;;;;;;;18.49;39.10;102770.78;4987435;28;121848;-88
2024/01/13 00:23:00;;;;;;;6.68;2.72;;;;;;;18.50;39.16;102769.00;4980284;28;115547;-87
2024/01/13 00:25:26;;;;;;;6.38;3.20;;;;;;;18.49;39.18;102770.78;4974061;28;96682;-88
2024/01/13 00:27:51;;;;;;;4.97;2.63;;;;;;;18.50;39.10;102766.34;4964348;28;129541;-88
2024/01/13 00:30:16;;;;;;;6.32;2.72;;;;;;;18.50;39.05;102769.00;4965897;28;128261;-87
2024/01/13 00:32:42;;;;;;;5.90;2.70;;;;;;;18.49;38.99;102754.91;4960449;28;96756;-88
2024/01/13 00:35:08;;;;;;;6.35;3.20;;;;;;;18.50;39.27;102761.06;4969096;28;96666;-88
2024/01/13 00:37:34;;;;;;;6.28;3.47;;;;;;;18.51;38.91;102762.88;4987655;28;99759;-88
2024/01/13 00:39:59;;;;;;;6.15;2.53;;;;;;;18.50;39.38;102753.16;4988843;28;96807;-88
2024/01/13 00:42:24;;;;;;;6.93;2.45;;;;;;;18.49;38.89;102754.91;4982141;28;96820;-88
2024/01/13 00:44:50;;;;;;;4.80;2.40;;;;;;;18.50;39.30;102753.16;4970302;28;112639;-88
2024/01/13 00:47:15;;;;;;;7.35;2.55;;;;;;;18.49;38.90;102752.28;4975616;28;97755;-88
2024/01/13 00:49:41;;;;;;;5.65;3.10;;;;;;;18.50;39.21;102750.50;4972565;28;98890;-88
2024/01/13 00:52:06;;;;;;;4.70;2.42;;;;;;;18.49;39.24;102749.63;4979964;28;115822;-88
2024/01/13 00:54:32;;;;;;;5.57;2.47;;;;;;;18.50;39.37;102745.22;5005256;28;97192;-88
2024/01/13 00:56:57;;;;;;;5.22;2.22;;;;;;;18.50;38.97;102740.81;4968593;28;115260;-86
2024/01/13 00:59:23;;;;;;;5.43;2.53;;;;;;;18.50;38.89;102740.81;4973371;28;96800;-88
2024/01/13 01:01:48;;;;;;;4.88;2.15;;;;;;;18.49;38.99;102732.91;4980882;28;100869;-88
2024/01/13 01:04:13;;;;;;;6.35;2.78;;;;;;;18.50;39.16;102732.00;5004673;28;110527;-87
2024/01/13 01:06:39;;;;;;;5.90;3.08;;;;;;;18.50;39.17;102726.72;4970599;28;128211;-87
2024/01/13 01:09:06;;;;;;;5.50;2.45;;;;;;;18.50;39.04;102722.31;4999938;28;96957;-87
2024/01/13 01:11:31;;;;;;;6.80;2.28;;;;;;;18.50;39.19;102726.72;4964050;28;96705;-88
2024/01/13 01:13:57;;;;;;;4.90;2.42;;;;;;;18.51;38.85;102720.59;4987344;28;97404;-87
2024/01/13 01:16:22;;;;;;;5.75;2.95;;;;;;;18.50;39.06;102716.16;5002406;28;99925;-88
2024/01/13 01:18:48;;;;;;;6.22;3.03;;;;;;;18.50;39.32;102708.22;4974335;28;96782;-87
2024/01/13 01:21:14;;;;;;;4.65;2.60;;;;;;;18.49;38.84;102703.84;4998231;28;118131;-88
2024/01/13 01:23:40;;;;;;;6.03;2.38;;;;;;;18.49;39.10;102709.13;4987476;28;96892;-87
2024/01/13 01:26:05;;;;;;;4.88;3.13;;;;;;;18.50;38.85;102709.09;4988558;28;96885;-88
2024/01/13 01:28:31;;;;;;;6.57;2.83;;;;;;;18.50;39.18;102702.94;4965802;28;98843;-88
2024/01/13 01:30:56;;;;;;;5.25;2.67;;;;;;;18.50;38.85;102700.31;5001694;28;96702;-87
2024/01/13 01:33:21;;;;;;;4.93;2.28;;;;;;;18.49;39.21;102694.13;4973705;28;96722;-88
2024/01/13 01:35:47;;;;;;;4.72;2.70;;;;;;;18.50;39.19;102692.38;5003629;28;99170;-88
2024/01/13 01:38:12;;;;;;;5.35;2.72;;;;;;;18.50;39.09;102703.81;4983796;28;106933;-88
2024/01/13 01:40:39;;;;;;;6.30;2.67;;;;;;;18.50;38.75;102695.88;4982413;28;96939;-87
2024/01/13 01:43:04;;;;;;;4.60;2.25;;;;;;;18.50;38.95;102701.19;5000263;28;96943;-87
2024/01/13 01:45:29;;;;;;;5.75;3.03;;;;;;;18.50;38.86;102693.25;4998724;28;99246;-88
2024/01/13 01:47:55;;;;;;;4.95;2.80;;;;;;;18.50;39.03;102703.81;5009876;27;97835;-88
2024/01/13 01:50:21;;;;;;;4.95;2.13;;;;;;;18.51;38.92;102699.44;4970735;28;96876;-88
2024/01/13 01:52:47;;;;;;;4.32;2.50;;;;;;;18.50;38.95;102695.00;5000996;28;96991;-87
2024/01/13 01:55:12;;;;;;;4.75;2.42;;;;;;;18.50;39.13;102685.31;4989521;28;97012;-87
2024/01/13 01:57:38;;;;;;;5.40;2.60;;;;;;;18.51;38.99;102688.88;5006376;28;99049;-88
2024/01/13 02:00:06;;;;;;;4.22;2.72;;;;;;;18.50;38.67;102695.00;4996588;28;96862;-88
2024/01/13 02:02:37;;;;;;;5.60;2.75;;;;;;;18.50;39.00;102687.09;4985619;28;97106;-88
2024/01/13 02:05:03;;;;;;;4.70;2.83;;;;;;;18.50;38.85;102698.53;4967664;28;98027;-87
2024/01/13 02:07:29;;;;;;;6.15;2.72;;;;;;;18.50;39.11;102682.69;4979911;28;99870;-87
2024/01/13 02:09:54;;;;;;;4.63;2.58;;;;;;;18.51;38.84;102678.31;4969441;28;98142;-87
2024/01/13 02:12:20;;;;;;;5.00;2.50;;;;;;;18.49;38.97;102677.41;5015816;27;97680;-87
2024/01/13 02:14:46;;;;;;;3.42;2.13;;;;;;;18.50;38.75;102679.16;4983374;28;98018;-88
2024/01/13 02:17:11;;;;;;;4.25;2.17;;;;;;;18.50;39.09;102677.41;4970769;28;99388;-88
2024/01/13 02:19:37;;;;;;;4.15;2.03;;;;;;;18.51;38.78;102667.72;5003830;28;96892;-87
2024/01/13 02:22:02;;;;;;;6.43;2.80;;;;;;;18.50;38.99;102668.59;4992529;28;96867;-88
2024/01/13 02:24:27;;;;;;;4.50;2.15;;;;;;;18.51;38.94;102660.69;4989788;28;126927;-88
2024/01/13 02:26:53;;;;;;;4.93;1.80;;;;;;;18.51;38.88;102670.38;4987670;28;107597;-87
2024/01/13 02:29:18;;;;;;;3.75;2.13;;;;;;;18.50;38.81;102666.81;4968472;28;97386;-87
2024/01/13 02:31:44;;;;;;;3.95;2.70;;;;;;;18.50;38.67;102671.22;4981171;28;116563;-87
2024/01/13 02:34:09;;;;;;;4.32;2.45;;;;;;;18.50;38.95;102658.03;4973571;28;98643;-87
2024/01/13 02:36:34;;;;;;;4.28;2.22;;;;;;;18.50;39.00;102645.69;5004341;28;121795;-87
2024/01/13 02:39:00;;;;;;;4.72;2.50;;;;;;;18.50;39.00;102637.75;5004076;28;115912;-87
2024/01/13 02:41:25;;;;;;;5.45;2.58;;;;;;;18.51;38.96;102622.81;4987923;28;96743;-88
2024/01/13 02:43:51;;;;;;;4.85;2.47;;;;;;;18.51;38.93;102620.16;4979061;28;118310;-88
2024/01/13 02:46:16;;;;;;;6.03;2.20;;;;;;;18.50;38.93;102616.63;4971325;28;117838;-88
2024/01/13 02:48:48;;;;;;;3.92;2.55;;;;;;;18.50;38.98;102610.47;4978007;28;96869;-87
2024/01/13 02:51:15;;;;;;;3.67;2.00;;;;;;;18.51;38.81;102606.97;5004172;28;96893;-87
2024/01/13 02:53:41;;;;;;;3.63;2.42;;;;;;;18.51;38.65;102599.03;4982715;28;98850;-88
2024/01/13 02:56:06;;;;;;;3.67;2.30;;;;;;;18.51;38.81;102599.03;5017053;28;120754;-88
2024/01/13 02:58:32;;;;;;;5.50;1.88;;;;;;;18.51;38.76;102591.09;4986802;28;96683;-88
2024/01/13 03:00:57;;;;;;;4.05;2.28;;;;;;;18.51;38.77;102585.81;4989811;28;96868;-87
2024/01/13 03:03:23;;;;;;;3.17;1.58;;;;;;;18.50;38.77;102584.03;4961112;28;113488;-87
2024/01/13 03:05:48;;;;;;;3.05;1.65;;;;;;;18.51;38.67;102584.06;4984301;28;121031;-87
2024/01/13 03:08:13;;;;;;;3.65;2.25;;;;;;;18.51;38.74;102585.81;4972842;28;113037;-87
2024/01/13 03:10:39;;;;;;;5.15;2.72;;;;;;;18.51;38.76;102583.19;4984753;28;117662;-88
2024/01/13 03:13:04;;;;;;;4.43;2.10;;;;;;;18.50;38.51;102574.34;4986941;28;97971;-87
2024/01/13 03:15:29;;;;;;;4.15;1.90;;;;;;;18.50;38.98;102570.81;4982974;28;97771;-87
2024/01/13 03:17:55;;;;;;;3.42;1.75;;;;;;;18.49;38.76;102574.38;4995659;28;96818;-88
2024/01/13 03:20:20;;;;;;;4.53;2.10;;;;;;;18.51;38.84;102569.97;5000845;28;97051;-87
2024/01/13 03:22:46;;;;;;;3.13;1.73;;;;;;;18.51;38.75;102567.31;4964923;28;127215;-87
2024/01/13 03:25:11;;;;;;;4.05;2.22;;;;;;;18.50;38.86;102566.41;4963432;28;125989;-87
2024/01/13 03:27:39;;;;;;;3.70;2.15;;;;;;;18.51;38.74;102562.91;5007906;28;96885;-87
2024/01/13 03:30:06;;;;;;;3.10;2.13;;;;;;;18.51;38.48;102546.19;5006434;28;96910;-87
2024/01/13 03:32:31;;;;;;;3.08;1.40;;;;;;;18.50;38.68;102545.28;5000796;28;99827;-88
2024/01/13 03:34:56;;;;;;;4.03;1.77;;;;;;;18.51;38.76;102540.91;5015549;28;126160;-88
2024/01/13 03:37:22;;;;;;;3.78;1.75;;;;;;;18.50;38.48;102540.00;4977942;28;113408;-88
2024/01/13 03:39:47;;;;;;;4.15;2.10;;;;;;;18.50;38.55;102544.41;5002925;28;96671;-88
2024/01/13 03:42:12;;;;;;;3.80;2.20;;;;;;;18.50;38.90;102537.34;4982415;28;126737;-87
2024/01/13 03:44:38;;;;;;;3.10;2.05;;;;;;;18.51;38.56;102540.91;4985262;28;97217;-87
2024/01/13 03:47:03;;;;;;;3.55;1.95;;;;;;;18.51;38.68;102535.63;4989260;28;97356;-87
2024/01/13 03:49:29;;;;;;;2.65;1.42;;;;;;;18.49;38.76;102538.25;5006784;28;97510;-88
2024/01/13 03:51:54;;;;;;;3.72;2.00;;;;;;;18.51;38.67;102532.97;4989290;28;98579;-87
2024/01/13 03:54:20;;;;;;;2.55;1.42;;;;;;;18.51;38.68;102519.75;4999812;28;124351;-87
2024/01/13 03:56:45;;;;;;;3.45;1.63;;;;;;;18.50;38.63;102513.56;4980594;28;97309;-87
2024/01/13 03:59:14;;;;;;;2.90;1.40;;;;;;;18.50;38.76;102510.94;5018437;27;96826;-87
2024/01/13 04:01:40;;;;;;;3.40;1.95;;;;;;;18.50;38.93;102504.78;5001985;28;100715;-87
2024/01/13 04:04:05;;;;;;;3.00;1.65;;;;;;;18.50;38.62;102496.84;4967725;28;96942;-87
2024/01/13 04:06:31;;;;;;;3.85;1.75;;;;;;;18.50;38.90;102508.28;4995823;28;97118;-87
2024/01/13 04:08:56;;;;;;;2.78;1.52;;;;;;;18.51;38.76;102501.25;4966428;28;104050;-88
2024/01/13 04:11:21;;;;;;;3.85;2.03;;;;;;;18.51;38.62;102502.13;5015496;28;116027;-87
2024/01/13 04:13:47;;;;;;;2.25;1.35;;;;;;;18.51;38.71;102501.25;4984092;28;99721;-87
2024/01/13 04:16:12;;;;;;;2.55;1.30;;;;;;;18.52;38.88;102497.72;5003161;28;117598;-87
2024/01/13 04:18:38;;;;;;;3.55;1.33;;;;;;;18.52;38.41;102489.81;4988418;28;96805;-87
2024/01/13 04:21:04;;;;;;;2.80;1.90;;;;;;;18.51;38.75;102490.69;4984475;28;99411;-88
2024/01/13 04:23:29;;;;;;;3.38;2.10;;;;;;;18.52;38.71;102492.44;4972952;28;98339;-87
2024/01/13 04:25:55;;;;;;;3.85;1.98;;;;;;;18.50;38.56;102489.78;5012527;28;96705;-87
2024/01/13 04:28:20;;;;;;;2.80;1.45;;;;;;;18.51;38.57;102481.00;4956409;28;97238;-87
2024/01/13 04:30:45;;;;;;;4.05;1.63;;;;;;;18.52;38.64;102490.72;4984291;28;99182;-87
2024/01/13 04:33:11;;;;;;;3.22;2.05;;;;;;;18.51;38.75;102477.47;4982673;28;104003;-87
2024/01/13 04:35:36;;;;;;;2.58;1.67;;;;;;;18.51;38.43;102477.47;4982382;28;96845;-87
2024/01/13 04:38:01;;;;;;;3.17;1.75;;;;;;;18.50;38.72;102476.56;4965844;28;97596;-87
2024/01/13 04:40:29;;;;;;;3.40;1.60;;;;;;;18.50;38.42;102479.22;4965315;28;97475;-87
2024/01/13 04:42:55;;;;;;;3.60;2.05;;;;;;;18.50;38.76;102481.00;4986750;28;96850;-87
2024/01/13 04:45:20;;;;;;;3.03;1.92;;;;;;;18.52;38.63;102479.22;4988547;28;96888;-87
2024/01/13 04:47:46;;;;;;;3.03;2.10;;;;;;;18.51;38.51;102477.47;4972801;28;97136;-87
2024/01/13 04:50:11;;;;;;;2.47;1.40;;;;;;;18.51;38.26;102472.19;4972403;28;97357;-88
2024/01/13 04:52:37;;;;;;;2.55;1.73;;;;;;;18.53;38.42;102470.44;4984272;28;99716;-87
2024/01/13 04:55:03;;;;;;;3.47;1.40;;;;;;;18.51;38.77;102459.88;4970636;28;96704;-87
2024/01/13 04:57:28;;;;;;;3.47;1.48;;;;;;;18.51;38.59;102469.56;5005104;28;96805;-88
2024/01/13 04:59:53;;;;;;;2.72;1.60;;;;;;;18.50;38.47;102468.66;4982909;28;124560;-87
2024/01/13 05:02:19;;;;;;;3.17;1.52;;;;;;;18.52;38.34;102471.31;4988389;28;96715;-87
2024/01/13 05:04:44;;;;;;;3.30;1.63;;;;;;;18.52;38.37;102476.59;4982581;28;97052;-87
2024/01/13 05:07:09;;;;;;;2.42;1.17;;;;;;;18.51;38.50;102481.00;4974129;28;117327;-87
2024/01/13 05:09:35;;;;;;;3.65;1.75;;;;;;;18.51;38.48;102474.84;4982687;28;126352;-87
2024/01/13 05:12:00;;;;;;;3.10;1.90;;;;;;;18.52;38.75;102476.59;4996240;28;98766;-87
2024/01/13 05:14:25;;;;;;;2.40;1.30;;;;;;;18.51;38.62;102474.84;4981729;28;116851;-87
2024/01/13 05:16:51;;;;;;;2.30;1.27;;;;;;;18.52;38.47;102481.88;5000485;28;97785;-87
2024/01/13 05:19:18;;;;;;;2.60;1.10;;;;;;;18.52;38.35;102473.94;4974745;28;127398;-87
2024/01/13 05:21:43;;;;;;;2.50;1.88;;;;;;;18.52;38.21;102472.22;5000048;28;96920;-87
2024/01/13 05:24:09;;;;;;;2.80;1.70;;;;;;;18.51;38.52;102469.56;4987024;28;97264;-87
2024/01/13 05:26:34;;;;;;;2.13;1.45;;;;;;;18.52;38.53;102473.94;4996864;28;96834;-87
2024/01/13 05:28:59;;;;;;;2.15;1.30;;;;;;;18.52;38.22;102472.22;4988065;28;98172;-87
2024/01/13 05:31:26;;;;;;;3.22;2.10;;;;;;;18.52;38.33;102466.94;4976902;28;96871;-87
2024/01/13 05:33:51;;;;;;;2.50;1.33;;;;;;;18.51;38.29;102465.16;4963488;28;96689;-87
2024/01/13 05:36:16;;;;;;;3.65;1.67;;;;;;;18.52;38.20;102459.00;4973238;28;111642;-87
2024/01/13 05:38:42;;;;;;;2.35;1.52;;;;;;;18.52;38.33;102459.00;4985639;28;98660;-87
2024/01/13 05:41:09;;;;;;;2.13;1.58;;;;;;;18.52;38.34;102461.66;4990970;28;97571;-87
2024/01/13 05:43:35;;;;;;;2.55;1.42;;;;;;;18.52;38.53;102455.44;4981570;28;97007;-87
2024/01/13 05:46:00;;;;;;;3.10;1.63;;;;;;;18.52;38.51;102453.72;4984557;28;117443;-87
2024/01/13 05:48:26;;;;;;;2.70;1.25;;;;;;;18.53;38.54;102446.66;5010769;27;99702;-87
2024/01/13 05:50:51;;;;;;;2.15;1.20;;;;;;;18.51;38.29;102449.28;4983381;28;97630;-87
2024/01/13 05:53:16;;;;;;;2.63;1.83;;;;;;;18.52;38.36;102452.81;4983368;28;96820;-87
2024/01/13 05:55:43;;;;;;;2.30;1.60;;;;;;;18.53;38.43;102449.31;4976691;28;97856;-87
2024/01/13 05:58:08;;;;;;;3.10;1.50;;;;;;;18.52;38.27;102448.44;4986182;28;98113;-87
2024/01/13 06:00:33;;;;;;;2.15;1.52;;;;;;;18.52;38.55;102456.34;4984592;28;128317;-87
2024/01/13 06:02:59;;;;;;;2.38;0.98;;;;;;;18.52;38.49;102450.16;5006286;28;96942;-87
2024/01/13 06:05:24;;;;;;;2.67;1.77;;;;;;;18.52;38.35;102453.72;4960360;28;96793;-87
2024/01/13 06:07:50;;;;;;;2.45;1.60;;;;;;;18.52;38.44;102447.53;4968903;28;126269;-87
2024/01/13 06:10:17;;;;;;;2.42;1.15;;;;;;;18.52;38.15;102439.59;4999654;28;98134;-87
2024/01/13 06:12:45;;;;;;;1.83;1.05;;;;;;;18.52;38.47;102440.50;4967864;28;97138;-87
2024/01/13 06:15:10;;;;;;;2.88;1.70;;;;;;;18.52;38.35;102427.28;4983470;28;96819;-87
2024/01/13 06:17:36;;;;;;;2.38;1.13;;;;;;;18.52;38.19;102427.28;4980875;28;99152;-87
2024/01/13 06:20:01;;;;;;;3.05;1.08;;;;;;;18.52;38.26;102418.47;4995176;28;125282;-87
2024/01/13 06:22:26;;;;;;;3.33;1.42;;;;;;;18.53;38.46;102404.38;4999596;28;96857;-87
2024/01/13 06:24:52;;;;;;;1.77;0.93;;;;;;;18.53;38.46;102396.47;4982153;28;98011;-87
2024/01/13 06:27:17;;;;;;;1.55;0.90;;;;;;;18.52;38.49;102400.88;5001411;28;116204;-87
2024/01/13 06:29:42;;;;;;;1.95;1.45;;;;;;;18.53;38.44;102391.19;4975360;28;107733;-87
2024/01/13 06:32:08;;;;;;;2.08;1.20;;;;;;;18.53;38.36;102392.03;4959803;28;96741;-87
2024/01/13 06:34:33;;;;;;;2.25;1.08;;;;;;;18.52;38.34;102397.31;4970990;28;98239;-87
2024/01/13 06:36:58;;;;;;;2.05;1.20;;;;;;;18.53;38.20;102407.03;4969295;28;112827;-87
2024/01/13 06:39:24;;;;;;;1.75;1.45;;;;;;;18.53;38.47;102413.19;4986460;28;96856;-87
2024/01/13 06:41:49;;;;;;;2.20;1.13;;;;;;;18.54;38.33;102416.69;4985061;28;96844;-87
2024/01/13 06:44:15;;;;;;;2.50;1.27;;;;;;;18.52;38.33;102403.50;4976053;28;96905;-87
2024/01/13 06:46:40;;;;;;;2.25;1.13;;;;;;;18.53;38.50;102396.47;4973591;28;98649;-88
2024/01/13 06:49:05;;;;;;;1.92;1.50;;;;;;;18.53;38.39;102401.75;4993737;28;97779;-87
2024/01/13 06:51:31;;;;;;;2.58;1.70;;;;;;;18.54;38.18;102393.81;4987933;28;108786;-87
2024/01/13 06:53:56;;;;;;;1.95;1.00;;;;;;;18.54;38.40;102377.06;4966733;28;115170;-87
2024/01/13 06:56:21;;;;;;;2.67;1.65;;;;;;;18.53;38.22;102365.63;4988431;28;127143;-87
2024/01/13 06:58:47;;;;;;;2.20;1.45;;;;;;;18.53;38.26;102359.47;4986743;28;119327;-88
2024/01/13 07:01:14;;;;;;;2.03;1.20;;;;;;;18.53;38.38;102344.50;4989600;28;96994;-87
2024/01/13 07:03:41;;;;;;;2.08;1.10;;;;;;;18.53;38.15;102339.19;4982995;28;97566;-88
2024/01/13 07:06:07;;;;;;;2.60;1.17;;;;;;;18.54;38.27;102326.88;4982766;28;99346;-87
2024/01/13 07:08:32;;;;;;;2.25;1.38;;;;;;;18.54;38.05;102329.50;5003134;27;96812;-88
2024/01/13 07:10:58;;;;;;;2.28;1.33;;;;;;;18.54;38.15;102327.78;4970192;28;97744;-88
2024/01/13 07:13:23;;;;;;;1.77;1.27;;;;;;;18.55;38.31;102315.44;4984136;28;97641;-88
2024/01/13 07:15:49;;;;;;;1.83;1.27;;;;;;;18.55;38.20;102312.78;5002601;28;126356;-87
2024/01/13 07:18:14;;;;;;;2.58;2.13;;;;;;;18.54;38.41;102308.38;4999947;28;96914;-88
2024/01/13 07:20:39;;;;;;;2.35;1.65;;;;;;;18.53;38.21;102317.19;4972280;28;96936;-88
2024/01/13 07:23:05;;;;;;;2.50;1.52;;;;;;;18.54;38.62;102335.69;5002239;27;117198;-87
2024/01/13 07:25:31;;;;;;;2.13;1.00;;;;;;;18.53;38.32;102328.63;4982008;28;120442;-88
2024/01/13 07:27:57;;;;;;;2.20;1.73;;;;;;;18.54;38.31;102324.22;5000495;28;100098;-88
2024/01/13 07:30:22;;;;;;;1.73;1.02;;;;;;;18.55;38.02;102321.59;5007794;28;97279;-87
2024/01/13 07:32:47;;;;;;;2.13;1.48;;;;;;;18.54;38.29;102319.84;4953615;28;96970;-87
2024/01/13 07:35:13;;;;;;;2.10;1.00;;;;;;;18.54;38.27;102332.16;4994829;28;120423;-87
2024/01/13 07:37:39;;;;;;;2.15;1.85;;;;;;;18.54;38.11;102327.78;4957993;28;98658;-85
2024/01/13 07:40:05;;;;;;;1.77;1.40;;;;;;;18.55;38.07;102318.06;4971887;28;97171;-85
2024/01/13 07:42:31;;;;;;;1.98;1.00;;;;;;;18.55;38.34;102311.03;4982880;28;96862;-85
2024/01/13 07:44:56;;;;;;;2.20;1.38;;;;;;;18.55;38.31;102302.22;4967806;28;100342;-86
2024/01/13 07:47:21;;;;;;;1.90;0.95;;;;;;;18.55;38.26;102303.09;4968869;28;130348;-84
2024/01/13 07:49:47;;;;;;;1.83;1.20;;;;;;;18.55;38.07;102302.22;4995491;28;97391;-85
2024/01/13 07:52:12;;;;;;;1.95;0.85;;;;;;;18.55;38.39;102300.44;4985434;28;97015;-84
2024/01/13 07:54:38;;;;;;;2.00;1.00;;;;;;;18.54;38.13;102301.34;4970822;28;97936;-84
2024/01/13 07:57:03;;;;;;;1.98;1.40;;;;;;;18.56;38.22;102304.00;4995403;28;125328;-85
2024/01/13 07:59:29;;;;;;;1.70;1.23;;;;;;;18.54;38.17;102306.63;4980613;28;96973;-85
2024/01/13 08:01:55;;;;;;;1.70;0.93;;;;;;;18.56;38.17;102290.78;4981929;28;117411;-84
2024/01/13 08:04:20;;;;;;;1.77;1.38;;;;;;;18.56;38.32;102280.22;4981241;28;96885;-85
2024/01/13 08:06:46;;;;;;;2.10;1.40;;;;;;;18.56;38.39;102274.94;4986873;28;97759;-85
2024/01/13 08:09:11;;;;;;;1.48;0.95;;;;;;;18.55;38.34;102274.03;4971178;28;96837;-85
2024/01/13 08:11:37;;;;;;;1.98;1.48;;;;;;;18.55;38.13;102281.94;4982784;28;96872;-85
2024/01/13 08:14:02;;;;;;;1.65;1.27;;;;;;;18.56;38.00;102278.44;4968277;28;112727;-85
2024/01/13 08:16:29;;;;;;;2.08;1.20;;;;;;;18.56;38.18;102264.38;5002322;28;126221;-85
2024/01/13 08:18:54;;;;;;;1.63;0.93;;;;;;;18.56;38.31;102256.44;5009662;27;98795;-84
2024/01/13 08:21:20;;;;;;;1.80;0.93;;;;;;;18.56;38.32;102259.94;4975390;28;96979;-85
2024/01/13 08:23:45;;;;;;;1.80;1.40;;;;;;;18.56;38.35;102267.88;4979001;28;97147;-85
2024/01/13 08:26:11;;;;;;;1.52;1.02;;;;;;;18.57;38.19;102268.75;4986965;28;99219;-84
2024/01/13 08:28:38;;;;;;;2.28;1.05;;;;;;;18.58;38.29;102270.53;4972154;28;97113;-85
2024/01/13 08:31:04;;;;;;;1.80;0.88;;;;;;;18.56;38.33;102259.06;4989422;28;113746;-85
2024/01/13 08:33:29;;;;;;;2.22;1.48;;;;;;;18.57;38.30;102250.25;4982410;28;98117;-86
2024/01/13 08:35:54;;;;;;;1.83;1.20;;;;;;;18.58;38.43;102263.47;4976712;28;124674;-85
2024/01/13 08:38:20;;;;;;;2.67;1.48;;;;;;;18.58;38.53;102278.44;5002028;28;101788;-86
2024/01/13 08:40:45;;;;;;;1.85;1.35;;;;;;;18.57;38.37;102277.59;4986984;28;108330;-85
2024/01/13 08:43:11;;;;;;;2.90;1.52;;;;;;;18.58;38.32;102278.44;5004299;28;98672;-85
2024/01/13 08:45:37;;;;;;;3.13;1.23;;;;;;;18.57;38.25;102287.25;4987016;28;98443;-85
2024/01/13 08:48:02;;;;;;;2.15;1.40;;;;;;;18.58;38.43;102281.09;4993665;28;96759;-85
2024/01/13 08:50:27;;;;;;;2.60;1.42;;;;;;;18.57;38.13;102279.31;5010258;28;96740;-84
2024/01/13 08:52:56;;;;;;;1.63;1.02;;;;;;;18.58;38.33;102278.44;4967634;28;99034;-86
2024/01/13 08:55:22;;;;;;;1.90;1.13;;;;;;;18.57;38.57;102274.94;4988035;28;97520;-85
2024/01/13 08:57:48;;;;;;;2.03;1.30;;;;;;;18.57;38.38;102274.94;4992488;28;96740;-85
2024/01/13 09:00:14;;;;;;;1.52;0.85;;;;;;;18.58;38.44;102265.25;4984802;28;96968;-85
2024/01/13 09:02:39;;;;;;;2.42;1.70;;;;;;;18.57;38.28;102261.72;4984899;28;96967;-84
2024/01/13 09:05:06;;;;;;;2.40;1.92;;;;;;;18.58;38.19;102271.41;4979563;28;96821;-84
2024/01/13 09:07:33;;;;;;;2.55;1.52;;;;;;;18.59;38.54;102273.19;4984653;28;96889;-84
2024/01/13 09:09:59;;;;;;;2.60;1.23;;;;;;;18.59;38.50;102256.41;4984946;28;96674;-85
2024/01/13 09:12:24;;;;;;;3.13;1.90;;;;;;;18.59;38.50;102270.53;4992985;28;111094;-85
2024/01/13 09:14:49;;;;;;;2.78;2.00;;;;;;;18.60;38.34;102266.13;4972661;28;127112;-85
2024/01/13 09:17:15;;;;;;;2.67;1.38;;;;;;;18.59;38.60;102262.59;4966739;28;96968;-85
2024/01/13 09:19:40;;;;;;;2.22;1.25;;;;;;;18.59;38.36;102269.63;4987598;28;96818;-85
2024/01/13 09:22:05;;;;;;;4.35;1.60;;;;;;;18.59;38.50;102266.97;4973682;28;97806;-84
2024/01/13 09:24:31;;;;;;;2.33;1.60;;;;;;;18.60;38.13;102263.47;4977593;28;112560;-84
2024/01/13 09:26:56;;;;;;;3.05;1.45;;;;;;;18.61;38.51;102267.91;4978931;28;98761;-86
2024/01/13 09:29:22;;;;;;;2.75;1.42;;;;;;;18.59;38.15;102265.25;4991772;28;96787;-86
2024/01/13 09:31:50;;;;;;;4.43;1.90;;;;;;;18.60;38.38;102264.34;4985600;28;101239;-84
2024/01/13 09:34:16;;;;;;;2.63;1.63;;;;;;;18.59;38.34;102262.59;4978697;28;100264;-86
2024/01/13 09:36:47;;;;;;;2.67;1.92;;;;;;;18.60;38.51;102258.19;4983341;28;96746;-85
2024/01/13 09:39:14;;;;;;;3.42;1.50;;;;;;;18.60;38.51;102260.84;4978761;28;97478;-85
2024/01/13 09:41:47;;;;;;;2.58;1.48;;;;;;;18.60;38.40;102266.13;4990738;28;97175;-85
2024/01/13 09:44:24;;;;;;;2.75;1.55;;;;;;;18.60;38.50;102263.47;4992714;28;97879;-86
2024/01/13 09:46:51;;;;;;;2.38;1.35;;;;;;;18.59;38.15;102252.03;4981234;28;97453;-85
2024/01/13 09:49:19;;;;;;;2.13;1.33;;;;;;;18.60;38.32;102245.84;4977195;28;96779;-87
2024/01/13 09:51:45;;;;;;;2.97;2.03;;;;;;;18.60;38.52;102243.22;4964984;28;98007;-86
2024/01/13 09:54:25;;;;;;;2.75;1.55;;;;;;;18.59;38.42;102236.19;5005788;28;99800;-88
2024/01/13 09:56:51;;;;;;;2.80;1.42;;;;;;;18.58;38.38;102229.13;4963646;28;96825;-85
2024/01/13 09:59:16;;;;;;;2.13;1.80;;;;;;;18.58;38.33;102223.84;4990152;28;96971;-87
2024/01/13 10:01:42;;;;;;;2.60;1.90;;;;;;;18.60;38.29;102231.75;4980607;28;100403;-86
2024/01/13 10:04:08;;;;;;;3.22;2.42;;;;;;;18.59;38.39;102233.53;4972390;28;99331;-84
2024/01/13 10:06:35;;;;;;;6.07;1.67;;;;;;;18.59;38.42;102230.91;4990844;28;97415;-84
2024/01/13 10:09:02;;;;;;;2.22;1.25;;;;;;;18.59;38.49;102228.25;4987032;28;97041;-84
2024/01/13 10:11:30;;;;;;;2.75;2.08;;;;;;;18.60;38.46;102235.28;4982233;28;98058;-84
2024/01/13 10:14:04;;;;;;;3.65;1.90;;;;;;;18.60;38.22;102229.13;4964014;28;97094;-84
2024/01/13 10:16:32;;;;;;;4.07;2.25;;;;;;;18.60;38.65;102213.28;4986021;28;96906;-84
2024/01/13 10:18:58;;;;;;;3.45;2.10;;;;;;;18.61;38.56;102217.69;4973764;28;97581;-84
2024/01/13 10:21:24;;;;;;;2.47;1.63;;;;;;;18.62;38.56;102214.16;4988188;28;100422;-85
2024/01/13 10:23:50;;;;;;;2.63;2.00;;;;;;;18.61;38.37;102215.91;5006087;27;98556;-84
2024/01/13 10:26:16;;;;;;;3.92;1.75;;;;;;;18.63;38.35;102221.22;4977074;28;96735;-84
2024/01/13 10:28:43;;;;;;;3.63;1.30;;;;;;;18.62;38.59;102217.66;4991464;28;96960;-85
2024/01/13 10:31:08;;;;;;;6.35;2.15;;;;;;;18.63;38.49;102223.84;5013081;28;99251;-84
2024/01/13 10:33:34;;;;;;;2.50;1.38;;;;;;;18.63;38.70;102211.50;4993211;28;98290;-84
2024/01/13 10:35:59;;;;;;;3.38;2.17;;;;;;;18.62;38.59;102211.50;4994195;28;97916;-85
2024/01/13 10:38:25;;;;;;;4.60;1.98;;;;;;;18.63;38.41;102202.72;4989616;28;117320;-84
2024/01/13 10:40:52;;;;;;;4.10;2.13;;;;;;;18.63;38.28;102200.06;4989982;28;97750;-85
2024/01/13 10:43:18;;;;;;;2.42;1.40;;;;;;;18.64;38.48;102204.44;4971973;28;99578;-84
2024/01/13 10:45:51;;;;;;;2.53;1.42;;;;;;;18.63;38.51;102194.78;4971450;28;96738;-85
2024/01/13 10:48:30;;;;;;;2.97;2.10;;;;;;;18.63;38.39;102189.50;4986795;28;96646;-85
2024/01/13 10:50:55;;;;;;;2.63;1.45;;;;;;;18.63;38.33;102189.50;4995899;28;99006;-84
2024/01/13 10:53:26;;;;;;;3.72;2.25;;;;;;;18.63;38.52;102187.72;4982049;28;98260;-85
2024/01/13 10:55:53;;;;;;;3.20;1.90;;;;;;;18.62;38.51;102185.06;4977130;28;96781;-85
2024/01/13 10:58:20;;;;;;;2.95;1.58;;;;;;;18.63;38.25;102182.44;4983753;28;96654;-85
2024/01/13 11:00:46;;;;;;;3.03;2.03;;;;;;;18.63;38.38;102171.88;4983493;28;96864;-85
2024/01/13 11:03:21;;;;;;;2.42;1.50;;;;;;;18.63;38.28;102166.59;4987947;28;97472;-84
2024/01/13 11:05:46;;;;;;;2.65;2.22;;;;;;;18.62;38.20;102169.22;4970064;28;97577;-86
2024/01/13 11:08:12;;;;;;;2.80;1.60;;;;;;;18.63;38.50;102169.22;4992511;28;96838;-85
2024/01/13 11:10:47;;;;;;;2.53;1.38;;;;;;;18.63;38.62;102160.44;4984937;28;104682;-84
2024/01/13 11:13:56;;;;;;;3.53;1.80;;;;;;;18.62;38.24;102153.38;4983870;28;96939;-85
2024/01/13 11:16:26;;;;;;;5.07;2.10;;;;;;;18.61;38.32;102151.63;4943036;28;97242;-85